createdAt,value
2018-06-29T17:34:32.521Z,100968.79
2018-06-29T17:34:44.307Z,100972.53
2018-06-29T17:34:56.076Z,100970.67
2018-06-29T17:35:07.853Z,100966.61
2018-06-29T17:35:19.668Z,100967.37
2018-06-29T17:35:30.480Z,100970.46
2018-06-29T17:35:42.273Z,100969.78
2018-06-29T17:35:54.062Z,100973.2
2018-06-29T17:36:06.054Z,100977.42
2018-06-29T17:36:17.828Z,100986.79
2018-06-29T17:36:29.589Z,100969.78
2018-06-29T17:36:41.355Z,100978.95
2018-06-29T17:36:52.149Z,100968.35
2018-06-29T17:37:03.936Z,100965.35
2018-06-29T17:37:15.704Z,100974.93
2018-06-29T17:37:27.475Z,100977.47
2018-06-29T17:37:39.264Z,100962.53
2018-06-29T17:37:51.068Z,100970.14
2018-06-29T17:38:02.825Z,100967.64
2018-06-29T17:38:14.604Z,100965.35
2018-06-29T17:38:25.382Z,100966.32
2018-06-29T17:38:37.176Z,100967.17
2018-06-29T17:38:48.982Z,100965.57
2018-06-29T17:39:00.759Z,100966.92
2018-06-29T17:39:54.778Z,100967.69
2018-06-29T17:40:05.571Z,100968.75
2018-06-29T17:44:40.703Z,1009.5831
2018-06-29T17:44:52.470Z,1009.6134
2018-06-29T17:45:36.063Z,1009.6307
2018-06-29T17:45:47.823Z,1009.6634
2018-06-29T17:45:59.576Z,1009.6782
2018-06-29T17:46:10.336Z,1009.7219
2018-06-29T17:46:22.135Z,1009.6663
2018-06-29T17:46:33.939Z,1009.7298
2018-06-29T17:46:45.674Z,1009.6878
2018-06-29T17:46:57.424Z,1009.7354
2018-06-29T17:47:09.193Z,1009.6983
2018-06-29T17:47:20.969Z,1009.7463
2018-06-29T17:47:32.729Z,1009.7446
2018-06-29T17:47:44.522Z,1009.7215
2018-06-29T17:47:55.282Z,1009.6472
2018-06-29T17:48:06.094Z,1009.716
2018-06-29T17:48:17.841Z,1009.6879
2018-06-29T17:48:29.607Z,1009.7231
2018-06-29T17:48:40.360Z,1009.7324
2018-06-29T17:48:51.120Z,1009.7285
2018-06-29T17:49:03.896Z,1009.7125
2018-06-29T17:49:15.667Z,1009.7398
2018-06-29T17:49:26.602Z,1009.7676
2018-06-29T17:49:38.452Z,1009.7054
2018-06-29T17:49:50.200Z,1009.7539
2018-06-29T17:50:01.985Z,1009.6833
2018-06-29T17:50:12.711Z,1009.6869
2018-06-29T17:50:24.486Z,1009.6831
2018-06-29T17:50:36.256Z,1009.6926
2018-06-29T17:50:48.066Z,1009.669
2018-06-29T17:50:58.836Z,1009.7487
2018-06-29T17:51:10.603Z,1009.704
2018-06-29T17:51:22.344Z,1009.7248
2018-06-29T17:51:33.109Z,1009.7194
2018-06-29T17:51:44.866Z,1009.7385
2018-06-29T17:51:56.629Z,1009.6824
2018-06-29T17:52:07.382Z,1009.6076
2018-06-29T17:52:19.143Z,1009.6822
2018-06-29T17:52:30.915Z,1009.6324
2018-06-29T17:52:42.734Z,1009.6283
2018-06-29T17:52:54.444Z,1009.654
2018-06-29T17:53:05.180Z,1009.6665
2018-06-29T17:53:15.957Z,1009.6529
2018-06-29T17:53:27.718Z,1009.6369
2018-06-29T17:53:38.471Z,1009.6478
2018-06-29T17:53:50.283Z,1009.6809
2018-06-29T17:54:00.983Z,1009.731
2018-06-29T17:54:12.732Z,1009.6596
2018-06-29T17:54:24.535Z,1009.681
2018-06-29T17:54:37.312Z,1009.6548
2018-06-29T17:54:48.054Z,1009.6495
2018-06-29T17:54:59.906Z,1009.6925
2018-06-29T17:55:11.594Z,1009.65
2018-06-29T17:55:23.455Z,1009.6917
2018-06-29T17:55:35.113Z,1009.6782
2018-06-29T17:55:46.860Z,1009.7243
2018-06-29T17:55:58.602Z,1009.6989
2018-06-29T17:56:10.370Z,1009.6814
2018-06-29T17:56:22.133Z,1009.6439
2018-06-29T17:56:33.922Z,1009.689
2018-06-29T17:56:44.686Z,1009.6723
2018-06-29T17:56:55.418Z,1009.7341
2018-06-29T17:57:07.176Z,1009.7335
2018-06-29T17:57:18.948Z,1009.7561
2018-06-29T17:57:30.692Z,1009.7027
2018-06-29T17:57:42.443Z,1009.7402
2018-06-29T17:57:54.179Z,1009.8226
2018-06-29T17:58:05.951Z,1009.7253
2018-06-29T17:58:17.740Z,1009.7238
2018-06-29T17:58:29.487Z,1009.6777
2018-06-29T17:58:41.242Z,1009.707
2018-06-29T17:58:53.011Z,1009.7056
2018-06-29T17:59:04.769Z,1009.721
2018-06-29T17:59:16.519Z,1009.7126
2018-06-29T17:59:27.278Z,1009.7606
2018-06-29T17:59:39.071Z,1009.6732
2018-06-29T17:59:50.850Z,1009.6914
2018-06-29T18:00:02.529Z,1009.6339
2018-06-29T18:00:14.282Z,1009.6818
2018-06-29T18:00:26.039Z,1009.6972
2018-06-29T18:00:37.844Z,1009.6954
2018-06-29T18:00:49.604Z,1009.6713
2018-06-29T18:01:01.312Z,1009.673
2018-06-29T18:01:12.051Z,1009.6489
2018-06-29T18:01:23.814Z,1009.6865
2018-06-29T18:01:35.594Z,1009.6864
2018-06-29T18:01:47.357Z,1009.6777
2018-06-29T18:01:59.136Z,1009.6881
2018-06-29T18:02:10.908Z,1009.6887
2018-06-29T18:02:22.665Z,1009.7006
2018-06-29T18:02:34.435Z,1009.6864
2018-06-29T18:02:46.193Z,1009.7068
2018-06-29T18:02:56.921Z,1009.6708
2018-06-29T18:03:08.671Z,1009.6612
2018-06-29T18:03:18.405Z,1009.7056
2018-06-29T18:03:30.244Z,1009.7056
2018-06-29T18:03:41.014Z,1009.8145
2018-06-29T18:03:52.759Z,1009.6672
2018-06-29T18:04:03.532Z,1009.739
2018-06-29T18:04:15.314Z,1009.7345
2018-06-29T18:04:26.190Z,1009.6601
2018-06-29T18:04:37.816Z,1009.6447
2018-06-29T18:04:48.567Z,1009.7111
2018-06-29T18:05:00.343Z,1009.6532
2018-06-29T18:05:12.083Z,1009.7175
2018-06-29T18:05:22.838Z,1009.6838
2018-06-29T18:05:34.630Z,1009.7393
2018-06-29T18:05:46.323Z,1009.7033
2018-06-29T18:05:57.073Z,1009.6674
2018-06-29T18:06:08.829Z,1009.6854
2018-06-29T18:06:20.587Z,1009.7522
2018-06-29T18:06:32.350Z,1009.7482
2018-06-29T18:06:44.106Z,1009.6969
2018-06-29T18:06:55.907Z,1009.7125
2018-06-29T18:07:06.676Z,1009.7221
2018-06-29T18:07:18.356Z,1009.629
2018-06-29T18:07:29.112Z,1009.6325
2018-06-29T18:07:40.885Z,1009.6206
2018-06-29T18:07:52.620Z,1009.6334
2018-06-29T18:08:04.399Z,1009.6875
2018-06-29T18:08:16.146Z,1009.6003
2018-06-29T18:08:26.906Z,1009.6388
2018-06-29T18:08:38.669Z,1009.6622
2018-06-29T18:08:50.414Z,1009.695
2018-06-29T18:09:01.171Z,1009.6755
2018-06-29T18:09:11.934Z,1009.7312
2018-06-29T18:09:23.685Z,1009.632
2018-06-29T18:09:35.475Z,1009.6624
2018-06-29T18:09:47.245Z,1009.7456
2018-06-29T18:09:59.010Z,1009.7048
2018-06-29T18:10:10.783Z,1009.6768
2018-06-29T18:10:22.542Z,1009.6552
2018-06-29T18:10:34.291Z,1009.712
2018-06-29T18:10:46.047Z,1009.6881
2018-06-29T18:10:57.797Z,1009.7008
2018-06-29T18:11:09.579Z,1009.7015
2018-06-29T18:11:21.351Z,1009.6695
2018-06-29T18:11:33.110Z,1009.7111
2018-06-29T18:11:44.903Z,1009.6954
2018-06-29T18:11:54.706Z,1009.6832
2018-06-29T18:12:07.434Z,1009.6865
2018-06-29T18:12:18.188Z,1009.7025
2018-06-29T18:12:29.928Z,1009.6774
2018-06-29T18:12:41.765Z,1009.7902
2018-06-29T18:12:52.533Z,1009.7385
2018-06-29T18:13:04.271Z,1009.684
2018-06-29T18:13:16.886Z,1009.7033
2018-06-29T18:13:28.600Z,1009.6637
2018-06-29T18:13:40.370Z,1009.6737
2018-06-29T18:13:51.125Z,1009.6426
2018-06-29T18:14:02.892Z,1009.6492
2018-06-29T18:14:14.647Z,1009.6389
2018-06-29T18:14:25.396Z,1009.6849
2018-06-29T18:14:37.142Z,1009.6573
2018-06-29T18:14:48.907Z,1009.6707
2018-06-29T18:15:00.664Z,1009.6791
2018-06-29T18:15:12.410Z,1009.6592
2018-06-29T18:15:24.173Z,1009.7029
2018-06-29T18:15:34.920Z,1009.6668
2018-06-29T18:15:46.660Z,1009.7019
2018-06-29T18:15:57.426Z,1009.6496
2018-06-29T18:16:09.203Z,1009.7
2018-06-29T18:16:20.920Z,1009.6809
2018-06-29T18:16:32.714Z,1009.6915
2018-06-29T18:16:44.479Z,1009.7031
2018-06-29T18:16:56.249Z,1009.6578
2018-06-29T18:17:05.999Z,1009.6727
2018-06-29T18:17:17.750Z,1009.7418
2018-06-29T18:17:29.517Z,1009.734
2018-06-29T18:17:41.275Z,1009.7436
2018-06-29T18:17:52.053Z,1009.6893
2018-06-29T18:18:03.794Z,1009.7229
2018-06-29T18:18:15.578Z,1009.774
2018-06-29T18:18:27.297Z,1009.6887
2018-06-29T18:18:39.070Z,1009.7099
2018-06-29T18:18:50.859Z,1009.7089
2018-06-29T18:19:02.643Z,1009.7131
2018-06-29T18:19:14.356Z,1009.7537
2018-06-29T18:19:26.160Z,1009.7374
2018-06-29T18:19:37.905Z,1009.7248
2018-06-29T18:19:50.648Z,1009.7379
2018-06-29T18:20:02.396Z,1009.7184
2018-06-29T18:20:14.347Z,1009.6835
2018-06-29T18:20:26.127Z,1009.6757
2018-06-29T18:20:38.928Z,1009.7103
2018-06-29T18:20:49.725Z,1009.6657
2018-06-29T18:21:01.507Z,1009.6709
2018-06-29T18:21:13.266Z,1009.6691
2018-06-29T18:21:24.043Z,1009.6589
2018-06-29T18:21:35.791Z,1009.6355
2018-06-29T18:21:47.567Z,1009.6451
2018-06-29T18:21:59.337Z,1009.7
2018-06-29T18:22:11.114Z,1009.64
2018-06-29T18:22:22.871Z,1009.6726
2018-06-29T18:22:33.650Z,1009.7681
2018-06-29T18:22:45.482Z,1009.6882
2018-06-29T18:22:56.259Z,1009.6811
2018-06-29T18:23:08.023Z,1009.6657
2018-06-29T18:23:19.858Z,1009.6972
2018-06-29T18:23:31.620Z,1009.6811
2018-06-29T18:23:43.333Z,1009.676
2018-06-29T18:23:54.086Z,1009.6766
2018-06-29T18:24:04.830Z,1009.6571
2018-06-29T18:24:16.618Z,1009.6931
2018-06-29T18:24:28.416Z,1009.688
2018-06-29T18:24:39.154Z,1009.7068
2018-06-29T18:24:50.929Z,1009.6314
2018-06-29T18:25:02.769Z,1009.6956
2018-06-29T18:25:14.606Z,1009.6965
2018-06-29T18:25:26.330Z,1009.6997
2018-06-29T18:25:38.101Z,1009.734
2018-06-29T18:25:49.851Z,1009.6842
2018-06-29T18:25:59.590Z,1009.7287
2018-06-29T18:26:11.447Z,1009.6698
2018-06-29T18:26:23.252Z,1009.7092
2018-06-29T18:26:35.040Z,1009.6842
2018-06-29T18:26:46.807Z,1009.6989
2018-06-29T18:26:58.588Z,1009.7681
2018-06-29T18:27:10.342Z,1009.7606
2018-06-29T18:27:21.113Z,1009.7061
2018-06-29T18:27:32.942Z,1009.7145
2018-06-29T18:27:44.679Z,1009.7642
2018-06-29T18:27:56.479Z,1009.7561
2018-06-29T18:28:08.254Z,1009.757
2018-06-29T18:28:21.019Z,1009.7604
2018-06-29T18:28:32.803Z,1009.7295
2018-06-29T18:28:44.563Z,1009.7848
2018-06-29T18:28:55.356Z,1009.7584
2018-06-29T18:29:07.135Z,1009.7802
2018-06-29T18:29:17.898Z,1009.7764
2018-06-29T18:29:29.652Z,1009.759
2018-06-29T18:29:41.491Z,1009.7427
2018-06-29T18:29:52.181Z,1009.7312
2018-06-29T18:30:02.983Z,1009.7207
2018-06-29T18:30:14.778Z,1009.7503
2018-06-29T18:30:26.536Z,1009.7545
2018-06-29T18:30:38.298Z,1009.6915
2018-06-29T18:30:49.057Z,1009.7453
2018-06-29T18:30:59.809Z,1009.7601
2018-06-29T18:31:11.624Z,1009.7338
2018-06-29T18:31:23.432Z,1009.7644
2018-06-29T18:31:35.101Z,1009.7126
2018-06-29T18:31:45.890Z,1009.7055
2018-06-29T18:31:57.639Z,1009.7661
2018-06-29T18:32:08.388Z,1009.7426
2018-06-29T18:32:20.140Z,1009.7047
2018-06-29T18:32:31.917Z,1009.7189
2018-06-29T18:32:43.676Z,1009.7226
2018-06-29T18:32:55.433Z,1009.7412
2018-06-29T18:33:07.190Z,1009.7228
2018-06-29T18:33:18.950Z,1009.691
2018-06-29T18:33:30.752Z,1009.7263
2018-06-29T18:33:42.505Z,1009.7578
2018-06-29T18:33:54.295Z,1009.712
2018-06-29T18:34:06.120Z,1009.7237
2018-06-29T18:34:16.779Z,1009.731
2018-06-29T18:34:28.559Z,1009.7341
2018-06-29T18:34:40.332Z,1009.7176
2018-06-29T18:34:52.112Z,1009.6762
2018-06-29T18:35:02.843Z,1009.7001
2018-06-29T18:35:14.605Z,1009.7384
2018-06-29T18:35:26.376Z,1009.7056
2018-06-29T18:35:38.114Z,1009.7274
2018-06-29T18:35:49.885Z,1009.6354
2018-06-29T18:36:01.654Z,1009.7028
2018-06-29T18:36:13.434Z,1009.7042
2018-06-29T18:36:23.185Z,1009.6659
2018-06-29T18:36:34.948Z,1009.6963
2018-06-29T18:36:46.754Z,1009.6902
2018-06-29T18:36:58.460Z,1009.7161
2018-06-29T18:37:10.230Z,1009.6525
2018-06-29T18:37:22.006Z,1009.671
2018-06-29T18:37:32.755Z,1009.6665
2018-06-29T18:37:44.505Z,1009.7512
2018-06-29T18:37:56.254Z,1009.7407
2018-06-29T18:38:07.996Z,1009.741
2018-06-29T18:38:18.746Z,1009.7321
2018-06-29T18:38:30.539Z,1009.6755
2018-06-29T18:38:42.271Z,1009.7288
2018-06-29T18:38:54.065Z,1009.7659
2018-06-29T18:39:03.858Z,1009.7023
2018-06-29T18:39:15.612Z,1009.7284
2018-06-29T18:39:27.412Z,1009.7026
2018-06-29T18:39:38.164Z,1009.721
2018-06-29T18:39:49.947Z,1009.7338
2018-06-29T18:40:00.670Z,1009.6942
2018-06-29T18:40:12.424Z,1009.7211
2018-06-29T18:40:25.167Z,1009.6796
2018-06-29T18:40:36.931Z,1009.6554
2018-06-29T18:40:48.675Z,1009.6361
2018-06-29T18:40:59.468Z,1009.7175
2018-06-29T18:41:09.203Z,1009.7217
2018-06-29T18:41:19.987Z,1009.7135
2018-06-29T18:41:31.760Z,1009.6868
2018-06-29T18:41:43.545Z,1009.7483
2018-06-29T18:41:55.332Z,1009.7795
2018-06-29T18:42:06.096Z,1009.7153
2018-06-29T18:42:17.878Z,1009.6968
2018-06-29T18:42:28.641Z,1009.6997
2018-06-29T18:42:40.409Z,1009.741
2018-06-29T18:42:52.215Z,1009.7595
2018-06-29T18:43:02.945Z,1009.7473
2018-06-29T18:43:13.730Z,1009.7109
2018-06-29T18:43:25.472Z,1009.7415
2018-06-29T18:43:37.239Z,1009.7509
2018-06-29T18:43:48.980Z,1009.7584
2018-06-29T18:44:00.768Z,1009.7512
2018-06-29T18:44:11.519Z,1009.7667
2018-06-29T18:44:22.287Z,1009.751
2018-06-29T18:44:34.048Z,1009.8156
2018-06-29T18:44:44.792Z,1009.7565
2018-06-29T18:44:56.568Z,1009.7448
2018-06-29T18:45:08.338Z,1009.7864
2018-06-29T18:45:20.081Z,1009.686
2018-06-29T18:45:30.858Z,1009.7235
2018-06-29T18:45:42.610Z,1009.707
2018-06-29T18:45:54.444Z,1009.7362
2018-06-29T18:46:06.193Z,1009.7837
2018-06-29T18:46:17.959Z,1009.7698
2018-06-29T18:46:29.701Z,1009.7556
2018-06-29T18:46:40.466Z,1009.7589
2018-06-29T18:46:51.212Z,1009.7644
2018-06-29T18:47:03.000Z,1009.6932
2018-06-29T18:47:14.773Z,1009.7421
2018-06-29T18:47:25.509Z,1009.744
2018-06-29T18:47:37.280Z,1009.7335
2018-06-29T18:47:49.022Z,1009.762
2018-06-29T18:48:00.825Z,1009.6907
2018-06-29T18:48:11.570Z,1009.78
2018-06-29T18:48:23.315Z,1009.7966
2018-06-29T18:48:35.093Z,1009.7465
2018-06-29T18:48:45.864Z,1009.7734
2018-06-29T18:48:57.676Z,1009.7168
2018-06-29T18:49:09.434Z,1009.7282
2018-06-29T18:49:21.130Z,1009.7022
2018-06-29T18:49:31.880Z,1009.722
2018-06-29T18:49:43.658Z,1009.7146
2018-06-29T18:49:54.384Z,1009.6818
2018-06-29T18:50:05.126Z,1009.7033
2018-06-29T18:50:15.862Z,1009.6857
2018-06-29T18:50:27.662Z,1009.709
2018-06-29T18:50:38.485Z,1009.734
2018-06-29T18:50:50.256Z,1009.7732
2018-06-29T18:51:02.020Z,1009.6768
2018-06-29T18:51:13.826Z,1009.7056
2018-06-29T18:51:25.662Z,1009.6967
2018-06-29T18:51:37.438Z,1009.7068
2018-06-29T18:51:49.231Z,1009.7476
2018-06-29T18:52:00.021Z,1009.6729
2018-06-29T18:52:11.839Z,1009.7284
2018-06-29T18:52:24.459Z,1009.7743
2018-06-29T18:52:36.245Z,1009.8026
2018-06-29T18:52:47.991Z,1009.7432
2018-06-29T18:52:59.758Z,1009.7755
2018-06-29T18:53:11.503Z,1009.7538
2018-06-29T18:53:23.313Z,1009.7608
2018-06-29T18:53:34.074Z,1009.7029
2018-06-29T18:53:45.827Z,1009.712
2018-06-29T18:53:57.613Z,1009.7194
2018-06-29T18:54:09.344Z,1009.7123
2018-06-29T18:54:21.112Z,1009.6984
2018-06-29T18:54:31.860Z,1009.7369
2018-06-29T18:54:43.655Z,1009.7257
2018-06-29T18:54:55.402Z,1009.7229
2018-06-29T18:55:07.176Z,1009.6781
2018-06-29T18:55:18.969Z,1009.7318
2018-06-29T18:55:28.712Z,1009.7195
2018-06-29T18:55:40.472Z,1009.7058
2018-06-29T18:55:53.258Z,1009.7539
2018-06-29T18:56:05.053Z,1009.709
2018-06-29T18:56:16.853Z,1009.721
2018-06-29T18:56:28.600Z,1009.7575
2018-06-29T18:56:40.358Z,1009.7239
2018-06-29T18:56:52.100Z,1009.7595
2018-06-29T18:57:03.883Z,1009.7689
2018-06-29T18:57:15.638Z,1009.7601
2018-06-29T18:57:27.387Z,1009.7508
2018-06-29T18:57:39.231Z,1009.7295
2018-06-29T18:57:50.936Z,1009.7335
2018-06-29T18:58:02.694Z,1009.7107
2018-06-29T18:58:13.478Z,1009.7218
2018-06-29T18:58:25.235Z,1009.6837
2018-06-29T18:58:35.995Z,1009.7509
2018-06-29T18:58:46.770Z,1009.7841
2018-06-29T18:58:56.664Z,1009.7664
2018-06-29T18:59:08.282Z,1009.7273
2018-06-29T18:59:20.038Z,1009.7564
2018-06-29T18:59:31.821Z,1009.7216
2018-06-29T18:59:42.572Z,1009.7533
2018-06-29T18:59:53.325Z,1009.7307
2018-06-29T19:00:04.071Z,1009.7229
2018-06-29T19:00:15.809Z,1009.7343
2018-06-29T19:00:26.576Z,1009.6904
2018-06-29T19:00:38.348Z,1009.7396
2018-06-29T19:00:50.108Z,1009.7454
2018-06-29T19:01:01.872Z,1009.7194
2018-06-29T19:01:12.731Z,1009.7568
2018-06-29T19:01:24.442Z,1009.7271
2018-06-29T19:01:36.222Z,1009.7404
2018-06-29T19:01:46.965Z,1009.7269
2018-06-29T19:01:56.735Z,1009.7133
2018-06-29T19:02:08.542Z,1009.7518
2018-06-29T19:02:20.311Z,1009.7801
2018-06-29T19:02:31.064Z,1009.7439
2018-06-29T19:02:42.822Z,1009.6904
2018-06-29T19:02:53.593Z,1009.734
2018-06-29T19:03:05.350Z,1009.7329
2018-06-29T19:03:16.079Z,1009.7601
2018-06-29T19:03:27.858Z,1009.762
2018-06-29T19:03:37.590Z,1009.7385
2018-06-29T19:03:48.344Z,1009.7281
2018-06-29T19:04:00.133Z,1009.7561
2018-06-29T19:04:11.906Z,1009.7575
2018-06-29T19:04:23.711Z,1009.7603
2018-06-29T19:04:34.454Z,1009.7547
2018-06-29T19:04:46.215Z,1009.7029
2018-06-29T19:04:56.964Z,1009.7218
2018-06-29T19:05:08.814Z,1009.7427
2018-06-29T19:05:20.470Z,1009.7563
2018-06-29T19:05:32.232Z,1009.7159
2018-06-29T19:05:43.985Z,1009.709
2018-06-29T19:05:55.742Z,1009.6983
2018-06-29T19:06:07.517Z,1009.739
2018-06-29T19:06:19.279Z,1009.7548
2018-06-29T19:06:31.042Z,1009.7562
2018-06-29T19:06:42.805Z,1009.7418
2018-06-29T19:06:54.814Z,1009.6745
2018-06-29T19:07:05.596Z,1009.7396
2018-06-29T19:07:16.354Z,1009.7136
2018-06-29T19:07:28.095Z,1009.7985
2018-06-29T19:07:39.872Z,1009.8054
2018-06-29T19:07:51.625Z,1009.7843
2018-06-29T19:08:02.375Z,1009.7537
2018-06-29T19:08:14.149Z,1009.755
2018-06-29T19:08:24.931Z,1009.7426
2018-06-29T19:08:36.682Z,1009.7355
2018-06-29T19:08:48.439Z,1009.7883
2018-06-29T19:09:01.191Z,1009.7952
2018-06-29T19:09:12.939Z,1009.7715
2018-06-29T19:09:24.717Z,1009.7492
2018-06-29T19:09:36.449Z,1009.7619
2018-06-29T19:09:48.195Z,1009.7759
2018-06-29T19:09:59.956Z,1009.8045
2018-06-29T19:10:11.695Z,1009.7374
2018-06-29T19:10:23.448Z,1009.7775
2018-06-29T19:10:35.222Z,1009.787
2018-06-29T19:10:46.977Z,1009.8155
2018-06-29T19:10:58.749Z,1009.8013
2018-06-29T19:11:10.508Z,1009.8071
2018-06-29T19:11:22.259Z,1009.7557
2018-06-29T19:11:34.014Z,1009.7796
2018-06-29T19:11:45.754Z,1009.7857
2018-06-29T19:11:57.554Z,1009.8448
2018-06-29T19:12:09.292Z,1009.7874
2018-06-29T19:12:21.040Z,1009.7534
2018-06-29T19:12:32.796Z,1009.7929
2018-06-29T19:12:44.552Z,1009.7837
2018-06-29T19:12:54.316Z,1009.8004
2018-06-29T19:13:06.087Z,1009.8162
2018-06-29T19:13:17.843Z,1009.8248
2018-06-29T19:13:29.608Z,1009.7764
2018-06-29T19:13:40.364Z,1009.8057
2018-06-29T19:13:51.240Z,1009.8009
2018-06-29T19:14:01.984Z,1009.822
2018-06-29T19:14:13.729Z,1009.8184
2018-06-29T19:14:25.487Z,1009.8154
2018-06-29T19:14:37.237Z,1009.7823
2018-06-29T19:14:48.008Z,1009.7765
2018-06-29T19:14:59.781Z,1009.8016
2018-06-29T19:15:11.560Z,1009.77
2018-06-29T19:15:23.320Z,1009.7945
2018-06-29T19:15:35.175Z,1009.817
2018-06-29T19:15:46.930Z,1009.8115
2018-06-29T19:15:58.698Z,1009.8462
2018-06-29T19:16:10.456Z,1009.8501
2018-06-29T19:16:22.231Z,1009.8217
2018-06-29T19:16:33.993Z,1009.8745
2018-06-29T19:16:45.802Z,1009.8784
2018-06-29T19:16:57.646Z,1009.8278
2018-06-29T19:17:09.392Z,1009.8452
2018-06-29T19:17:21.144Z,1009.8428
2018-06-29T19:17:31.887Z,1009.8167
2018-06-29T19:17:43.650Z,1009.8626
2018-06-29T19:17:54.387Z,1009.8228
2018-06-29T19:18:06.152Z,1009.8499
2018-06-29T19:18:17.907Z,1009.8425
2018-06-29T19:18:29.753Z,1009.8393
2018-06-29T19:18:41.428Z,1009.8245
2018-06-29T19:18:52.235Z,1009.8535
2018-06-29T19:19:03.990Z,1009.8506
2018-06-29T19:19:15.742Z,1009.8563
2018-06-29T19:19:27.491Z,1009.8612
2018-06-29T19:19:38.252Z,1009.8591
2018-06-29T19:19:50.018Z,1009.8482
2018-06-29T19:20:01.808Z,1009.8143
2018-06-29T19:20:12.546Z,1009.8188
2018-06-29T19:20:24.313Z,1009.8439
2018-06-29T19:20:35.090Z,1009.879
2018-06-29T19:20:46.848Z,1009.8423
2018-06-29T19:20:58.605Z,1009.8337
2018-06-29T19:21:10.346Z,1009.8451
2018-06-29T19:21:22.108Z,1009.8601
2018-06-29T19:21:33.865Z,1009.8338
2018-06-29T19:21:45.621Z,1009.8677
2018-06-29T19:21:57.402Z,1009.8573
2018-06-29T19:22:09.143Z,1009.8604
2018-06-29T19:22:20.919Z,1009.8739
2018-06-29T19:22:31.676Z,1009.8305
2018-06-29T19:22:43.550Z,1009.8449
2018-06-29T19:22:55.203Z,1009.8535
2018-06-29T19:23:06.950Z,1009.8447
2018-06-29T19:23:18.760Z,1009.8332
2018-06-29T19:23:29.501Z,1009.8301
2018-06-29T19:23:41.279Z,1009.8382
2018-06-29T19:23:53.044Z,1009.8074
2018-06-29T19:24:04.792Z,1009.8577
2018-06-29T19:24:16.563Z,1009.8537
2018-06-29T19:24:28.326Z,1009.8449
2018-06-29T19:24:40.119Z,1009.8007
2018-06-29T19:24:51.887Z,1009.8233
2018-06-29T19:25:03.665Z,1009.7979
2018-06-29T19:25:15.399Z,1009.7561
2018-06-29T19:25:27.176Z,1009.7993
2018-06-29T19:25:38.921Z,1009.8054
2018-06-29T19:25:50.665Z,1009.796
2018-06-29T19:26:02.426Z,1009.8735
2018-06-29T19:26:14.203Z,1009.8513
2018-06-29T19:26:25.947Z,1009.8328
2018-06-29T19:26:37.710Z,1009.8306
2018-06-29T19:26:49.471Z,1009.8354
2018-06-29T19:27:01.230Z,1009.8426
2018-06-29T19:27:13.012Z,1009.8329
2018-06-29T19:27:24.771Z,1009.8126
2018-06-29T19:27:36.539Z,1009.8571
2018-06-29T19:27:48.273Z,1009.8482
2018-06-29T19:28:00.039Z,1009.8204
2018-06-29T19:28:11.792Z,1009.8259
2018-06-29T19:28:22.534Z,1009.8447
2018-06-29T19:28:34.284Z,1009.8468
2018-06-29T19:28:46.062Z,1009.8301
2018-06-29T19:28:57.822Z,1009.8804
2018-06-29T19:29:08.558Z,1009.8057
2018-06-29T19:29:20.409Z,1009.8654
2018-06-29T19:29:33.152Z,1009.846
2018-06-29T19:29:44.943Z,1009.844
2018-06-29T19:29:56.691Z,1009.8386
2018-06-29T19:30:08.456Z,1009.8507
2018-06-29T19:30:19.212Z,1009.8577
2018-06-29T19:30:30.975Z,1009.8311
2018-06-29T19:30:42.711Z,1009.8815
2018-06-29T19:30:54.457Z,1009.8663
2018-06-29T19:31:06.206Z,1009.8735
2018-06-29T19:31:17.977Z,1009.863
2018-06-29T19:31:29.741Z,1009.8459
2018-06-29T19:31:41.215Z,1009.8249
2018-06-29T19:31:51.933Z,1009.8283
2018-06-29T19:32:03.729Z,1009.8245
2018-06-29T19:32:15.483Z,1009.8038
2018-06-29T19:32:27.290Z,1009.8403
2018-06-29T19:32:39.019Z,1009.8518
2018-06-29T19:32:50.782Z,1009.9093
2018-06-29T19:33:01.629Z,1009.8873
2018-06-29T19:33:13.413Z,1009.8557
2018-06-29T19:33:25.201Z,1009.8515
2018-06-29T19:33:36.982Z,1009.885
2018-06-29T19:33:47.760Z,1009.8939
2018-06-29T19:33:59.533Z,1009.9188
2018-06-29T19:34:11.282Z,1009.8842
2018-06-29T19:34:23.037Z,1009.8387
2018-06-29T19:34:34.795Z,1009.9204
2018-06-29T19:34:46.555Z,1009.9174
2018-06-29T19:34:58.320Z,1009.8807
2018-06-29T19:35:10.076Z,1009.8428
2018-06-29T19:35:21.866Z,1009.8492
2018-06-29T19:35:32.561Z,1009.869
2018-06-29T19:35:43.327Z,1009.8556
2018-06-29T19:35:54.068Z,1009.8759
2018-06-29T19:36:04.802Z,1009.8853
2018-06-29T19:36:14.564Z,1009.8426
2018-06-29T19:36:26.400Z,1009.8476
2018-06-29T19:36:38.186Z,1009.8962
2018-06-29T19:36:49.939Z,1009.8688
2018-06-29T19:37:01.692Z,1009.8854
2018-06-29T19:37:11.430Z,1009.8934
2018-06-29T19:37:23.187Z,1009.9193
2018-06-29T19:37:33.955Z,1009.8783
2018-06-29T19:37:45.763Z,1009.9134
2018-06-29T19:37:56.500Z,1009.8737
2018-06-29T19:38:08.277Z,1009.8855
2018-06-29T19:38:20.075Z,1009.9037
2018-06-29T19:38:31.820Z,1009.8979
2018-06-29T19:38:43.594Z,1009.9444
2018-06-29T19:38:55.362Z,1009.9211
2018-06-29T19:39:06.260Z,1009.9191
2018-06-29T19:39:17.894Z,1009.9212
2018-06-29T19:39:29.695Z,1009.942
2018-06-29T19:39:40.443Z,1009.9606
2018-06-29T19:39:52.161Z,1009.9551
2018-06-29T19:40:03.921Z,1009.9349
2018-06-29T19:40:15.674Z,1009.9531
2018-06-29T19:40:27.416Z,1009.9489
2018-06-29T19:40:39.168Z,1009.9506
2018-06-29T19:40:50.911Z,1009.9046
2018-06-29T19:41:02.663Z,1009.9093
2018-06-29T19:41:15.429Z,1009.9021
2018-06-29T19:41:27.192Z,1009.9503
2018-06-29T19:41:37.950Z,1009.9202
2018-06-29T19:41:49.719Z,1009.9232
2018-06-29T19:42:01.483Z,1009.9554
2018-06-29T19:42:13.255Z,1009.9731
2018-06-29T19:42:25.032Z,1009.9343
2018-06-29T19:42:36.788Z,1009.9475
2018-06-29T19:42:48.528Z,1009.9829
2018-06-29T19:43:00.293Z,1009.9281
2018-06-29T19:43:12.058Z,1009.9509
2018-06-29T19:43:22.821Z,1009.9779
2018-06-29T19:43:33.589Z,1009.9607
2018-06-29T19:43:45.325Z,1009.9945
2018-06-29T19:43:56.089Z,1009.9746
2018-06-29T19:44:07.860Z,1009.9992
2018-06-29T19:44:19.621Z,1009.9506
2018-06-29T19:44:31.410Z,1009.9503
2018-06-29T19:44:43.154Z,1009.979
2018-06-29T19:44:54.918Z,1009.9646
2018-06-29T19:45:06.664Z,1009.9726
2018-06-29T19:45:18.429Z,1010.0081
2018-06-29T19:45:30.192Z,1009.974
2018-06-29T19:45:42.002Z,1010.004
2018-06-29T19:45:53.837Z,1009.9579
2018-06-29T19:46:05.597Z,1009.9534
2018-06-29T19:46:16.358Z,1009.9762
2018-06-29T19:46:27.116Z,1009.9555
2018-06-29T19:46:38.893Z,1009.9914
2018-06-29T19:46:50.672Z,1009.9854
2018-06-29T19:47:02.426Z,1009.9893
2018-06-29T19:47:13.200Z,1009.9481
2018-06-29T19:47:24.941Z,1009.9776
2018-06-29T19:47:36.697Z,1009.9746
2018-06-29T19:47:48.455Z,1009.9489
2018-06-29T19:48:00.235Z,1009.9682
2018-06-29T19:48:11.997Z,1009.9578
2018-06-29T19:48:23.752Z,1009.9992
2018-06-29T19:48:35.498Z,1009.952
2018-06-29T19:48:47.262Z,1009.9723
2018-06-29T19:48:59.034Z,1009.9646
2018-06-29T19:49:10.795Z,1010.0018
2018-06-29T19:49:22.545Z,1009.9732
2018-06-29T19:49:34.290Z,1010.0014
2018-06-29T19:49:46.032Z,1009.9959
2018-06-29T19:49:57.838Z,1010.0179
2018-06-29T19:50:07.589Z,1010.0239
2018-06-29T19:50:19.358Z,1010.0204
2018-06-29T19:50:31.159Z,1009.9935
2018-06-29T19:50:42.951Z,1009.9998
2018-06-29T19:50:54.701Z,1009.966
2018-06-29T19:51:05.456Z,1010.0172
2018-06-29T19:51:17.280Z,1009.9884
2018-06-29T19:51:28.041Z,1010.0125
2018-06-29T19:51:39.785Z,1010.0103
2018-06-29T19:51:49.530Z,1010.007
2018-06-29T19:52:00.288Z,1010.0399